createdAt,value
2022-10-09T00:01:51.450Z,20.78
2022-10-09T00:04:18.463Z,20.78
2022-10-09T00:06:45.726Z,20.72
2022-10-09T00:09:12.912Z,20.63
2022-10-09T00:11:40.228Z,20.66
2022-10-09T00:14:07.906Z,20.59
2022-10-09T00:16:36.672Z,20.58
2022-10-09T00:19:04.082Z,20.60
2022-10-09T00:21:34.041Z,20.56
2022-10-09T00:26:54.625Z,20.54
2022-10-09T00:29:21.706Z,20.59
2022-10-09T00:31:51.367Z,20.51
2022-10-09T00:34:18.525Z,20.51
2022-10-09T00:36:45.565Z,20.51
2022-10-09T00:39:12.606Z,20.45
2022-10-09T00:41:39.809Z,20.50
2022-10-09T00:44:40.108Z,20.51
2022-10-09T00:47:18.769Z,20.40
2022-10-09T00:49:48.367Z,20.45
2022-10-09T00:52:16.687Z,20.48
2022-10-09T00:54:44.800Z,20.49
2022-10-09T00:57:12.642Z,20.44
2022-10-09T00:59:40.685Z,20.44
2022-10-09T01:02:08.135Z,20.47
2022-10-09T01:04:36.864Z,20.17
2022-10-09T01:07:27.882Z,20.24
2022-10-09T01:10:02.128Z,20.24
2022-10-09T01:12:46.630Z,20.25
2022-10-09T01:15:20.160Z,20.22
2022-10-09T01:18:00.453Z,20.15
2022-10-09T01:20:41.749Z,20.26
2022-10-09T01:23:34.066Z,20.22
2022-10-09T01:29:10.304Z,20.25
2022-10-09T01:31:42.784Z,20.13
2022-10-09T01:34:14.021Z,20.22
2022-10-09T01:36:44.103Z,20.20
2022-10-09T01:39:18.125Z,20.23
2022-10-09T01:41:48.221Z,20.28
2022-10-09T01:44:18.485Z,20.31
2022-10-09T01:46:46.881Z,20.32
2022-10-09T01:49:29.203Z,20.38
2022-10-09T01:52:05.655Z,20.43
2022-10-09T01:54:43.002Z,20.41
2022-10-09T01:57:14.221Z,20.45
2022-10-09T01:59:47.562Z,20.39
2022-10-09T02:02:15.797Z,20.42
2022-10-09T02:04:44.697Z,20.51
2022-10-09T02:07:11.902Z,20.52
2022-10-09T02:09:40.965Z,20.54
2022-10-09T02:12:12.896Z,20.55
2022-10-09T02:14:40.215Z,20.54
2022-10-09T02:17:17.374Z,20.55
2022-10-09T02:19:50.874Z,20.60
2022-10-09T02:22:20.357Z,20.65
2022-10-09T02:24:48.274Z,20.72
2022-10-09T02:27:16.553Z,20.74
2022-10-09T02:29:46.174Z,20.76
2022-10-09T02:32:16.181Z,20.70
2022-10-09T02:34:43.517Z,20.65
2022-10-09T02:37:10.933Z,20.64
2022-10-09T02:39:38.294Z,20.62
2022-10-09T02:42:05.596Z,20.64
2022-10-09T02:44:32.714Z,20.67
2022-10-09T02:46:59.753Z,20.73
2022-10-09T02:49:28.360Z,21.26
2022-10-09T02:51:55.374Z,21.48
2022-10-09T02:54:22.413Z,21.47
2022-10-09T02:56:49.494Z,21.54
2022-10-09T02:59:16.593Z,21.55
2022-10-09T03:01:43.717Z,21.66
2022-10-09T03:04:10.892Z,21.77
2022-10-09T03:06:39.336Z,21.79
2022-10-09T03:09:06.453Z,21.86
2022-10-09T03:11:33.514Z,21.99
2022-10-09T03:14:00.600Z,22.12
2022-10-09T03:16:28.067Z,22.18
2022-10-09T03:18:55.655Z,22.18
2022-10-09T03:21:25.715Z,22.26
2022-10-09T03:23:55.856Z,22.12
2022-10-09T03:26:25.214Z,22.24
2022-10-09T03:28:54.216Z,22.29
2022-10-09T03:36:37.994Z,22.29
2022-10-09T03:39:06.469Z,22.33
2022-10-09T03:41:33.557Z,22.31
2022-10-09T03:44:00.674Z,22.30
2022-10-09T03:46:28.138Z,22.28
2022-10-09T03:48:55.255Z,22.28
2022-10-09T03:51:22.334Z,22.29
2022-10-09T03:53:49.393Z,22.32
2022-10-09T03:56:17.914Z,22.34
2022-10-09T03:58:44.994Z,22.37
2022-10-09T04:01:12.193Z,22.35
2022-10-09T04:03:39.354Z,22.33
2022-10-09T04:06:06.834Z,22.33
2022-10-09T04:08:35.136Z,22.31
2022-10-09T04:11:02.781Z,22.26
2022-10-09T04:15:58.366Z,22.15
2022-10-09T04:18:25.754Z,22.22
2022-10-09T04:20:55.016Z,22.19
2022-10-09T04:23:25.088Z,22.19
2022-10-09T04:25:54.156Z,22.17
2022-10-09T04:28:21.626Z,22.17
2022-10-09T04:30:50.234Z,22.20
2022-10-09T04:33:17.338Z,22.23
2022-10-09T04:35:45.310Z,22.17
2022-10-09T04:38:12.895Z,22.13
2022-10-09T04:40:40.595Z,22.16
2022-10-09T04:43:07.675Z,22.14
2022-10-09T04:45:39.437Z,22.05
2022-10-09T04:48:07.973Z,22.01
2022-10-09T04:50:38.215Z,21.96
2022-10-09T04:53:05.357Z,21.94
2022-10-09T04:55:32.396Z,21.85
2022-10-09T04:57:59.415Z,21.90
2022-10-09T05:00:26.454Z,21.95
2022-10-09T05:02:53.494Z,21.91
2022-10-09T05:05:22.015Z,21.88
2022-10-09T05:07:49.096Z,21.87
2022-10-09T05:10:16.215Z,21.90
2022-10-09T05:12:43.295Z,21.90
2022-10-09T05:15:10.758Z,21.92
2022-10-09T05:17:37.804Z,21.84
2022-10-09T05:20:05.473Z,21.83
2022-10-09T05:22:33.954Z,21.89
2022-10-09T05:25:00.975Z,21.82
2022-10-09T05:27:28.054Z,21.83
2022-10-09T05:29:55.074Z,21.82
2022-10-09T05:32:22.133Z,21.77
2022-10-09T05:34:49.196Z,21.76
2022-10-09T05:37:16.234Z,21.79
2022-10-09T05:39:44.728Z,21.79
2022-10-09T05:42:11.793Z,21.76
2022-10-09T05:44:38.856Z,21.78
2022-10-09T05:47:05.895Z,21.76
2022-10-09T05:49:32.937Z,21.77
2022-10-09T05:52:00.040Z,21.73
2022-10-09T05:54:27.315Z,21.72
2022-10-09T05:56:55.714Z,21.77
2022-10-09T05:59:22.734Z,21.76
2022-10-09T06:01:51.610Z,21.84
2022-10-09T06:04:21.196Z,21.83
2022-10-09T06:06:49.354Z,21.80
2022-10-09T06:09:18.766Z,21.78
2022-10-09T06:11:45.794Z,21.77
2022-10-09T06:14:14.435Z,21.78
2022-10-09T06:16:43.683Z,21.74
2022-10-09T06:19:13.115Z,21.76
2022-10-09T06:21:40.535Z,21.75
2022-10-09T06:24:08.355Z,21.72
2022-10-09T06:26:35.446Z,21.76
2022-10-09T06:29:03.222Z,21.77
2022-10-09T06:31:33.715Z,21.69
2022-10-09T06:34:02.455Z,21.69
2022-10-09T06:36:31.057Z,21.66
2022-10-09T06:39:00.195Z,21.76
2022-10-09T06:41:28.714Z,21.69
2022-10-09T06:43:57.855Z,21.65
2022-10-09T06:46:27.332Z,21.71
2022-10-09T06:48:56.595Z,21.64
2022-10-09T06:51:24.118Z,21.58
2022-10-09T06:53:53.714Z,21.52
2022-10-09T06:56:23.456Z,21.63
2022-10-09T06:58:50.816Z,21.65
2022-10-09T07:01:20.249Z,21.75
2022-10-09T07:03:52.417Z,21.80
2022-10-09T07:06:23.074Z,21.82
2022-10-09T07:08:53.537Z,21.85
2022-10-09T07:11:23.615Z,21.88
2022-10-09T07:13:54.074Z,21.91
2022-10-09T07:16:23.149Z,21.95
2022-10-09T07:18:50.894Z,21.99
2022-10-09T07:21:17.955Z,22.23
2022-10-09T07:23:46.743Z,22.43
2022-10-09T07:26:17.299Z,22.49
2022-10-09T07:28:45.590Z,22.65
2022-10-09T07:31:12.897Z,22.59
2022-10-09T07:33:40.927Z,22.50
2022-10-09T07:36:09.874Z,22.44
2022-10-09T07:38:37.914Z,22.35
2022-10-09T07:41:08.995Z,22.26
2022-10-09T07:43:37.534Z,22.20
2022-10-09T07:46:07.373Z,22.08
2022-10-09T07:48:35.418Z,22.04
2022-10-09T07:51:08.906Z,22.00
2022-10-09T07:53:36.268Z,21.99
2022-10-09T07:56:04.337Z,21.89
2022-10-09T07:58:33.175Z,21.98
2022-10-09T08:01:04.614Z,21.94
2022-10-09T08:03:31.794Z,21.97
2022-10-09T08:05:58.878Z,22.02
2022-10-09T08:08:26.159Z,21.98
2022-10-09T08:10:53.315Z,21.92
2022-10-09T08:13:20.455Z,22.00
2022-10-09T08:15:48.982Z,21.97
2022-10-09T08:18:16.600Z,22.01
2022-10-09T08:20:43.974Z,22.02
2022-10-09T08:23:11.014Z,22.04
2022-10-09T08:25:38.153Z,22.04
2022-10-09T08:28:05.856Z,22.02
2022-10-09T08:30:32.955Z,22.06
2022-10-09T08:33:01.435Z,22.04
2022-10-09T08:35:33.725Z,22.09
2022-10-09T08:38:01.633Z,22.11
2022-10-09T08:40:42.374Z,22.07
2022-10-09T08:43:17.434Z,22.04
2022-10-09T08:45:47.813Z,22.05
2022-10-09T08:48:22.296Z,22.10
2022-10-09T08:50:53.775Z,22.12
2022-10-09T08:53:36.893Z,22.11
2022-10-09T08:56:06.376Z,22.13
2022-10-09T08:58:36.775Z,22.13
2022-10-09T09:01:12.707Z,22.25
2022-10-09T09:04:06.215Z,22.28
2022-10-09T09:06:42.780Z,22.34
2022-10-09T09:09:19.736Z,22.35
2022-10-09T09:11:53.635Z,22.38
2022-10-09T09:14:39.874Z,22.28
2022-10-09T09:17:22.036Z,22.34
2022-10-09T09:20:06.295Z,22.43
2022-10-09T09:22:36.335Z,22.38
2022-10-09T09:25:21.154Z,22.38
2022-10-09T09:27:49.478Z,22.42
2022-10-09T09:30:22.934Z,22.46
2022-10-09T09:32:59.759Z,22.47
2022-10-09T09:35:39.854Z,22.50
2022-10-09T09:38:07.477Z,22.53
2022-10-09T09:40:37.325Z,22.54
2022-10-09T09:43:16.594Z,22.60
2022-10-09T09:45:45.500Z,22.63
2022-10-09T09:48:18.838Z,22.65
2022-10-09T09:51:10.220Z,22.64
2022-10-09T09:53:44.058Z,22.66
2022-10-09T09:56:11.656Z,22.56
2022-10-09T09:58:44.355Z,22.61
2022-10-09T10:01:22.138Z,22.64
2022-10-09T10:03:51.195Z,22.63
2022-10-09T10:06:24.423Z,22.65
2022-10-09T10:09:02.842Z,22.74
2022-10-09T10:11:33.357Z,22.73
2022-10-09T10:14:07.176Z,22.87
2022-10-09T10:16:38.585Z,22.81
2022-10-09T10:19:06.247Z,22.73
2022-10-09T10:21:47.798Z,22.80
2022-10-09T10:24:23.055Z,22.84
2022-10-09T10:26:56.596Z,22.76
2022-10-09T10:29:32.520Z,22.84
2022-10-09T10:32:06.835Z,22.88
2022-10-09T10:34:43.234Z,23.01
2022-10-09T10:37:28.096Z,23.19
2022-10-09T10:40:03.254Z,23.33
2022-10-09T10:42:42.218Z,23.40
2022-10-09T10:45:16.235Z,23.43
2022-10-09T10:47:51.365Z,23.42
2022-10-09T10:50:21.546Z,23.45
2022-10-09T10:53:03.747Z,23.41
2022-10-09T10:55:49.065Z,23.46
2022-10-09T10:58:26.828Z,23.32
2022-10-09T11:01:20.332Z,23.54
2022-10-09T11:04:28.329Z,23.76
2022-10-09T11:07:08.931Z,23.75
2022-10-09T11:09:52.862Z,23.82
2022-10-09T11:12:47.888Z,23.98
2022-10-09T11:15:26.847Z,23.98
2022-10-09T11:18:06.509Z,24.12
2022-10-09T11:20:59.588Z,24.37
2022-10-09T11:23:39.988Z,24.58
2022-10-09T11:26:20.524Z,24.74
2022-10-09T11:28:53.675Z,24.84
2022-10-09T11:31:29.038Z,24.71
2022-10-09T11:34:03.510Z,24.96
2022-10-09T11:36:38.754Z,24.93
2022-10-09T11:39:12.944Z,24.90
2022-10-09T11:41:44.498Z,24.80
2022-10-09T11:44:35.760Z,24.92
2022-10-09T11:47:12.879Z,24.89
2022-10-09T11:50:00.183Z,25.10
2022-10-09T11:52:41.739Z,25.33
2022-10-09T11:55:17.899Z,25.30
2022-10-09T11:57:46.626Z,25.17
2022-10-09T12:00:15.124Z,25.00
2022-10-09T12:02:43.927Z,24.97
2022-10-09T12:05:28.031Z,25.14
2022-10-09T12:08:06.331Z,25.06
2022-10-09T12:10:35.430Z,25.02
2022-10-09T12:13:07.528Z,25.12
2022-10-09T12:15:46.009Z,25.06
2022-10-09T12:18:23.411Z,24.98
2022-10-09T12:20:53.249Z,24.96
2022-10-09T12:23:27.386Z,24.78
2022-10-09T12:25:56.929Z,24.84
2022-10-09T12:28:33.912Z,24.75
2022-10-09T12:31:05.535Z,24.92
2022-10-09T12:33:40.288Z,25.02
2022-10-09T12:36:14.178Z,24.87
2022-10-09T12:38:42.511Z,24.87
2022-10-09T12:41:20.420Z,24.66
2022-10-09T12:43:51.651Z,24.51
2022-10-09T12:46:29.053Z,24.53
2022-10-09T12:48:57.542Z,24.47
2022-10-09T12:51:26.975Z,24.39
2022-10-09T12:53:54.995Z,24.21
2022-10-09T12:56:28.452Z,24.24
2022-10-09T12:58:59.409Z,24.15
2022-10-09T13:01:27.534Z,24.17
2022-10-09T13:03:57.468Z,24.19
2022-10-09T13:06:27.645Z,24.26
2022-10-09T13:08:59.067Z,24.17
2022-10-09T13:11:35.369Z,24.14
2022-10-09T13:14:05.091Z,24.07
2022-10-09T13:16:44.136Z,24.14
2022-10-09T13:19:25.607Z,24.07
2022-10-09T13:22:07.627Z,23.98
2022-10-09T13:24:36.431Z,24.07
2022-10-09T13:27:04.967Z,24.12
2022-10-09T13:29:33.927Z,24.10
2022-10-09T13:32:01.001Z,24.11
2022-10-09T13:34:28.326Z,24.14
2022-10-09T13:36:56.066Z,24.07
2022-10-09T13:39:23.230Z,24.06
2022-10-09T13:41:52.167Z,23.98
2022-10-09T13:44:19.267Z,24.00
2022-10-09T13:46:47.747Z,23.98
2022-10-09T13:49:14.847Z,23.95
2022-10-09T13:51:41.926Z,23.92
2022-10-09T13:54:09.110Z,23.88
2022-10-09T13:56:36.245Z,23.88
2022-10-09T13:59:03.390Z,23.79
2022-10-09T14:01:30.716Z,23.79
2022-10-09T14:03:59.326Z,23.86
2022-10-09T14:06:26.414Z,23.86
2022-10-09T14:08:53.536Z,23.87
2022-10-09T14:11:20.687Z,23.84
2022-10-09T14:13:47.705Z,23.92
2022-10-09T14:16:14.866Z,23.92
2022-10-09T14:18:41.946Z,23.85
2022-10-09T14:21:15.001Z,23.84
2022-10-09T14:23:43.608Z,23.79
2022-10-09T14:26:10.751Z,23.81
2022-10-09T14:28:38.075Z,23.76
2022-10-09T14:31:06.448Z,23.78
2022-10-09T14:33:33.686Z,23.81
2022-10-09T14:36:06.127Z,23.78
2022-10-09T14:38:37.486Z,23.77
2022-10-09T14:41:05.064Z,23.77
2022-10-09T14:43:32.269Z,23.67
2022-10-09T14:46:03.505Z,23.73
2022-10-09T14:48:30.607Z,23.70
2022-10-09T14:51:03.427Z,23.74
2022-10-09T14:53:30.506Z,23.71
2022-10-09T14:56:01.726Z,23.53
2022-10-09T14:58:29.767Z,23.50
2022-10-09T15:00:57.450Z,23.44
2022-10-09T15:03:25.525Z,23.39
2022-10-09T15:05:56.346Z,23.36
2022-10-09T15:08:23.427Z,23.29
2022-10-09T15:10:50.486Z,23.27
2022-10-09T15:13:19.647Z,23.20
2022-10-09T15:15:46.926Z,23.29
2022-10-09T15:18:14.367Z,23.40
2022-10-09T15:20:44.747Z,23.29
2022-10-09T15:23:12.488Z,23.24
2022-10-09T15:25:39.545Z,23.20
2022-10-09T15:28:07.493Z,23.16
2022-10-09T15:30:36.127Z,23.11
2022-10-09T15:33:03.329Z,23.07
2022-10-09T15:35:32.547Z,23.04
2022-10-09T15:37:59.566Z,23.00
2022-10-09T15:40:26.765Z,22.99
2022-10-09T15:42:53.850Z,22.92
2022-10-09T15:45:20.906Z,22.90
2022-10-09T15:47:52.130Z,22.83
2022-10-09T15:50:19.212Z,22.83
2022-10-09T15:52:46.457Z,22.80
2022-10-09T15:55:13.727Z,22.78
2022-10-09T15:57:40.786Z,22.74
2022-10-09T16:00:09.126Z,22.73
2022-10-09T16:02:36.188Z,22.72
2022-10-09T16:05:05.408Z,22.71
2022-10-09T16:07:32.525Z,22.70
2022-10-09T16:09:59.526Z,22.65
2022-10-09T16:12:26.706Z,22.62
2022-10-09T16:14:53.746Z,22.61
2022-10-09T16:17:20.811Z,22.56
2022-10-09T16:19:48.179Z,22.52
2022-10-09T16:22:16.745Z,22.49
2022-10-09T16:24:44.047Z,22.47
2022-10-09T16:27:11.126Z,22.49
2022-10-09T16:29:38.148Z,22.44
2022-10-09T16:32:05.265Z,22.40
2022-10-09T16:34:32.309Z,22.38
2022-10-09T16:36:59.285Z,22.35
2022-10-09T16:39:28.086Z,22.33
2022-10-09T16:41:55.187Z,22.29
2022-10-09T16:44:22.228Z,22.30
2022-10-09T16:46:49.286Z,22.29
2022-10-09T16:49:21.282Z,22.25
2022-10-09T16:51:51.347Z,22.24
2022-10-09T16:54:18.429Z,22.21
2022-10-09T16:56:47.351Z,22.19
2022-10-09T16:59:14.488Z,22.19
2022-10-09T17:01:41.809Z,22.20
2022-10-09T17:04:08.845Z,22.16
2022-10-09T17:06:36.126Z,22.16
2022-10-09T17:09:12.583Z,22.12
2022-10-09T17:11:40.889Z,22.12
2022-10-09T17:14:10.128Z,22.12
2022-10-09T17:16:39.947Z,22.11
2022-10-09T17:19:07.249Z,22.10
2022-10-09T17:21:34.822Z,22.10
2022-10-09T17:24:04.788Z,22.09
2022-10-09T17:26:32.225Z,22.11
2022-10-09T17:28:59.777Z,22.11
2022-10-09T17:31:29.913Z,22.09
2022-10-09T17:33:59.868Z,22.09
2022-10-09T17:36:28.905Z,22.09
2022-10-09T17:38:56.306Z,22.07
2022-10-09T17:41:25.007Z,22.09
2022-10-09T17:43:53.950Z,22.09
2022-10-09T17:46:22.265Z,22.06
2022-10-09T17:48:50.882Z,22.06
2022-10-09T17:51:20.469Z,22.06
2022-10-09T17:53:48.173Z,22.05
2022-10-09T17:56:15.359Z,22.06
2022-10-09T17:58:42.387Z,22.05
2022-10-09T18:01:11.407Z,22.04
2022-10-09T18:03:38.646Z,22.06
2022-10-09T18:06:09.447Z,22.04
2022-10-09T18:08:36.846Z,22.08
2022-10-09T18:11:06.786Z,22.04
2022-10-09T18:13:34.926Z,22.03
2022-10-09T18:16:05.469Z,22.03
2022-10-09T18:18:32.688Z,22.00
2022-10-09T18:21:03.225Z,21.97
2022-10-09T18:23:32.568Z,21.94
2022-10-09T18:25:59.785Z,21.95
2022-10-09T18:30:55.928Z,22.01
2022-10-09T18:33:23.227Z,21.99
2022-10-09T18:35:50.345Z,21.98
2022-10-09T18:38:17.481Z,21.99
2022-10-09T18:40:46.237Z,21.99
2022-10-09T18:43:13.508Z,21.98
2022-10-09T18:45:45.707Z,21.95
2022-10-09T18:48:14.025Z,21.91
2022-10-09T18:50:42.466Z,21.86
2022-10-09T18:53:10.707Z,21.81
2022-10-09T18:55:38.868Z,21.83
2022-10-09T18:58:07.486Z,21.80
2022-10-09T19:00:36.538Z,21.78
2022-10-09T19:03:04.105Z,21.75
2022-10-09T19:05:31.248Z,21.73
2022-10-09T19:07:58.307Z,21.71
2022-10-09T19:10:25.626Z,21.69
2022-10-09T19:12:52.725Z,21.70
2022-10-09T19:15:21.906Z,21.72
2022-10-09T19:17:49.248Z,21.71
2022-10-09T19:20:16.586Z,21.71
2022-10-09T19:22:43.726Z,21.70
2022-10-09T19:25:10.987Z,21.66
2022-10-09T19:27:38.065Z,21.66
2022-10-09T19:30:06.285Z,21.68
2022-10-09T19:32:34.945Z,21.69
2022-10-09T19:35:02.056Z,21.69
2022-10-09T19:37:29.977Z,21.67
2022-10-09T19:39:57.629Z,21.66
2022-10-09T19:42:24.693Z,21.64
2022-10-09T19:44:51.972Z,21.62
2022-10-09T19:47:19.178Z,21.60
2022-10-09T19:49:47.647Z,21.60
2022-10-09T19:52:14.786Z,21.59
2022-10-09T19:54:41.949Z,21.61
2022-10-09T19:57:09.027Z,21.63
2022-10-09T19:59:36.165Z,21.59
2022-10-09T20:02:03.387Z,21.58
2022-10-09T20:04:30.447Z,21.62
2022-10-09T20:06:59.689Z,21.62
2022-10-09T20:09:27.548Z,21.61
2022-10-09T20:11:54.689Z,21.61
2022-10-09T20:14:21.868Z,21.64
2022-10-09T20:16:49.008Z,21.62
2022-10-09T20:19:16.246Z,21.61
2022-10-09T20:21:43.368Z,21.66
2022-10-09T20:24:11.908Z,21.69
2022-10-09T20:26:42.933Z,21.70
2022-10-09T20:29:10.528Z,21.71
2022-10-09T20:31:37.729Z,21.69
2022-10-09T20:34:05.028Z,21.65
2022-10-09T20:36:34.707Z,21.68
2022-10-09T20:39:04.849Z,21.67
2022-10-09T20:41:33.790Z,21.70
2022-10-09T20:44:02.590Z,21.71
2022-10-09T20:46:32.908Z,21.67
2022-10-09T20:49:01.887Z,21.60
2022-10-09T20:51:28.994Z,21.58
2022-10-09T20:53:58.570Z,21.58
2022-10-09T20:56:27.969Z,21.59
2022-10-09T20:58:57.368Z,21.61
2022-10-09T21:01:25.578Z,21.66
2022-10-09T21:03:52.748Z,21.64
2022-10-09T21:06:22.410Z,21.61
2022-10-09T21:08:50.328Z,21.59
2022-10-09T21:11:19.067Z,21.58
2022-10-09T21:13:47.736Z,21.57
2022-10-09T21:16:19.026Z,21.57
2022-10-09T21:18:46.645Z,21.56
2022-10-09T21:21:15.708Z,21.56
2022-10-09T21:23:44.187Z,21.54
2022-10-09T21:26:13.726Z,21.63
2022-10-09T21:28:40.975Z,21.57
2022-10-09T21:31:09.407Z,21.56
2022-10-09T21:33:38.505Z,21.51
2022-10-09T21:36:10.687Z,21.54
2022-10-09T21:38:37.789Z,21.52
2022-10-09T21:41:05.287Z,21.50
2022-10-09T21:43:32.387Z,21.53
2022-10-09T21:45:59.526Z,21.48
2022-10-09T21:48:26.708Z,21.44
2022-10-09T21:50:55.227Z,21.41
2022-10-09T21:53:22.305Z,21.46
2022-10-09T21:55:49.388Z,21.46
2022-10-09T21:58:16.388Z,21.46
2022-10-09T22:00:43.425Z,21.47
2022-10-09T22:03:10.487Z,21.48
2022-10-09T22:05:39.687Z,21.43
2022-10-09T22:08:10.173Z,21.43
2022-10-09T22:10:37.268Z,21.37
2022-10-09T22:13:04.407Z,21.42
2022-10-09T22:15:31.425Z,21.36
2022-10-09T22:17:58.588Z,21.38
2022-10-09T22:20:26.053Z,21.37
2022-10-09T22:22:53.344Z,21.38
2022-10-09T22:25:22.118Z,21.43
2022-10-09T22:27:49.187Z,21.44
2022-10-09T22:30:16.750Z,21.46
2022-10-09T22:32:43.928Z,21.47
2022-10-09T22:35:10.969Z,21.52
2022-10-09T22:37:38.043Z,21.52
2022-10-09T22:40:06.158Z,21.54
2022-10-09T22:42:35.388Z,21.54
2022-10-09T22:45:02.832Z,21.54
2022-10-09T22:47:29.877Z,21.53
2022-10-09T22:49:56.926Z,21.54
2022-10-09T22:52:24.268Z,21.59
2022-10-09T22:54:51.297Z,21.58
2022-10-09T22:57:18.806Z,21.60
2022-10-09T22:59:47.526Z,21.61
2022-10-09T23:02:14.726Z,21.63
2022-10-09T23:04:41.827Z,21.65
2022-10-09T23:07:09.886Z,21.65
2022-10-09T23:09:36.909Z,21.60
2022-10-09T23:12:04.295Z,21.60
2022-10-09T23:14:31.367Z,21.58
2022-10-09T23:16:59.838Z,21.66
2022-10-09T23:19:26.923Z,21.65
2022-10-09T23:21:53.877Z,21.67
2022-10-09T23:24:20.919Z,21.65
2022-10-09T23:26:51.526Z,21.63
2022-10-09T23:29:20.426Z,21.60
2022-10-09T23:31:47.709Z,21.57
2022-10-09T23:34:16.207Z,21.55
2022-10-09T23:36:43.347Z,21.58
2022-10-09T23:39:10.647Z,21.60
2022-10-09T23:41:38.566Z,21.59
2022-10-09T23:44:05.783Z,21.57
2022-10-09T23:46:33.087Z,21.54
2022-10-09T23:49:00.330Z,21.51
2022-10-09T23:51:29.347Z,21.50
2022-10-09T23:53:57.565Z,21.52
2022-10-09T23:56:27.066Z,21.47
2022-10-09T23:58:55.670Z,21.46
